createdAt,value
2017-06-03T00:00:56.942Z,14.15
2017-06-03T00:01:56.964Z,14.02
2017-06-03T00:04:11.627Z,14.12
2017-06-03T00:04:57.033Z,14.12
2017-06-03T00:05:57.058Z,14.04
2017-06-03T00:07:11.700Z,14.02
2017-06-03T00:07:57.110Z,14.02
2017-06-03T00:08:56.879Z,14.06
2017-06-03T00:09:56.851Z,13.99
2017-06-03T00:11:57.202Z,13.92
2017-06-03T00:12:57.229Z,13.97
2017-06-03T00:13:57.253Z,13.99
2017-06-03T00:14:57.278Z,14
2017-06-03T00:15:57.302Z,13.95
2017-06-03T00:16:57.323Z,13.89
2017-06-03T00:18:11.966Z,13.87
2017-06-03T00:18:57.377Z,13.75
2017-06-03T00:19:57.394Z,13.78
2017-06-03T00:21:57.443Z,13.88
2017-06-03T00:22:57.469Z,13.88
2017-06-03T00:23:57.490Z,13.87
2017-06-03T00:24:57.514Z,13.77
2017-06-03T00:25:57.539Z,13.75
2017-06-03T00:26:57.563Z,13.67
2017-06-03T00:27:57.586Z,13.67
2017-06-03T00:28:57.615Z,13.63
2017-06-03T00:29:57.636Z,13.66
2017-06-03T00:30:57.662Z,13.57
2017-06-03T00:32:57.709Z,13.49
2017-06-03T00:33:57.733Z,13.54
2017-06-03T00:35:12.375Z,13.51
2017-06-03T00:35:57.785Z,13.52
2017-06-03T00:36:57.810Z,13.57
2017-06-03T00:37:57.830Z,13.59
2017-06-03T00:39:12.473Z,13.51
2017-06-03T00:40:12.506Z,13.54
2017-06-03T00:40:57.900Z,13.38
2017-06-03T00:41:57.924Z,13.42
2017-06-03T00:42:57.949Z,13.45
2017-06-03T00:43:57.971Z,13.44
2017-06-03T00:44:57.995Z,13.48
2017-06-03T00:45:58.023Z,13.32
2017-06-03T00:47:58.067Z,13.41
2017-06-03T00:49:57.812Z,13.41
2017-06-03T00:50:57.836Z,13.28
2017-06-03T00:52:12.780Z,13.29
2017-06-03T00:52:57.882Z,13.36
2017-06-03T00:53:58.210Z,13.22
2017-06-03T00:55:12.852Z,13.14
2017-06-03T00:55:58.257Z,13.14
2017-06-03T00:56:58.282Z,13.15
2017-06-03T00:57:58.305Z,13.19
2017-06-03T00:58:58.330Z,13.17
2017-06-03T00:59:58.351Z,13.12
2017-06-03T01:00:58.376Z,13.04
2017-06-03T01:01:58.402Z,13.01
2017-06-03T01:02:58.425Z,13.05
2017-06-03T01:03:58.446Z,13.08
2017-06-03T01:05:13.091Z,12.97
2017-06-03T01:06:13.113Z,13.01
2017-06-03T01:07:13.137Z,13.01
2017-06-03T01:08:13.158Z,12.95
2017-06-03T01:08:58.580Z,12.93
2017-06-03T01:09:58.286Z,12.89
2017-06-03T01:11:13.231Z,12.89
2017-06-03T01:11:58.638Z,12.96
2017-06-03T01:12:58.659Z,12.92
2017-06-03T01:13:58.685Z,12.9
2017-06-03T01:14:58.709Z,12.87
2017-06-03T01:15:58.732Z,12.85
2017-06-03T01:16:58.755Z,12.9
2017-06-03T01:17:58.477Z,12.89
2017-06-03T01:18:58.803Z,12.86
2017-06-03T01:21:13.470Z,12.85
2017-06-03T01:21:58.873Z,12.86
2017-06-03T01:24:13.537Z,12.83
2017-06-03T01:24:58.942Z,12.9
2017-06-03T01:25:58.967Z,12.87
2017-06-03T01:27:13.660Z,12.82
2017-06-03T01:27:59.013Z,12.79
2017-06-03T01:28:59.037Z,12.87
2017-06-03T01:29:59.066Z,12.82
2017-06-03T01:30:58.781Z,12.83
2017-06-03T01:31:59.123Z,12.74
2017-06-03T01:32:59.131Z,12.67
2017-06-03T01:33:59.156Z,12.77
2017-06-03T01:34:59.179Z,12.79
2017-06-03T01:35:59.204Z,12.65
2017-06-03T01:36:59.223Z,12.65
2017-06-03T01:37:59.348Z,12.65
2017-06-03T01:39:13.890Z,12.68
2017-06-03T01:39:58.993Z,12.67
2017-06-03T01:40:59.324Z,12.67
2017-06-03T01:42:13.961Z,12.64
2017-06-03T01:42:59.420Z,12.7
2017-06-03T01:43:59.390Z,12.64
2017-06-03T01:44:59.415Z,12.67
2017-06-03T01:45:59.439Z,12.49
2017-06-03T01:46:59.462Z,12.5
2017-06-03T01:47:59.483Z,12.56
2017-06-03T01:48:59.508Z,12.47
2017-06-03T01:49:59.534Z,12.47
2017-06-03T01:51:59.576Z,12.46
2017-06-03T01:52:59.651Z,12.49
2017-06-03T01:53:59.627Z,12.42
2017-06-03T01:54:59.652Z,12.41
2017-06-03T01:55:59.673Z,12.42
2017-06-03T01:56:59.700Z,12.34
2017-06-03T01:57:59.721Z,12.39
2017-06-03T01:58:59.742Z,12.37
2017-06-03T01:59:59.765Z,12.38
2017-06-03T02:00:59.789Z,12.47
2017-06-03T02:01:59.506Z,12.31
2017-06-03T02:02:59.835Z,12.32
2017-06-03T02:03:59.554Z,12.23
2017-06-03T02:04:59.885Z,12.21
2017-06-03T02:05:59.903Z,12.28
2017-06-03T02:06:59.930Z,12.24
2017-06-03T02:08:59.973Z,12.16
2017-06-03T02:10:00.001Z,12.04
2017-06-03T02:11:14.638Z,12.09
2017-06-03T02:12:00.044Z,12.19
2017-06-03T02:12:59.765Z,12.14
2017-06-03T02:14:14.757Z,12.17
2017-06-03T02:15:00.120Z,12.17
2017-06-03T02:16:00.137Z,12.19
2017-06-03T02:17:00.163Z,12.21
2017-06-03T02:18:00.184Z,12.23
2017-06-03T02:19:00.207Z,12.19
2017-06-03T02:20:00.230Z,12.14
2017-06-03T02:21:00.251Z,12.02
2017-06-03T02:23:00.302Z,12.05
2017-06-03T02:25:00.350Z,12.01
2017-06-03T02:26:14.987Z,12.01
2017-06-03T02:27:15.009Z,11.98
2017-06-03T02:28:15.030Z,11.99
2017-06-03T02:29:00.489Z,11.96
2017-06-03T02:30:14.777Z,11.98
2017-06-03T02:31:00.486Z,11.91
2017-06-03T02:32:00.514Z,11.98
2017-06-03T02:33:00.535Z,11.96
2017-06-03T02:34:00.555Z,11.96
2017-06-03T02:35:00.277Z,11.96
2017-06-03T02:36:00.599Z,11.95
2017-06-03T02:38:00.647Z,11.86
2017-06-03T02:39:00.671Z,11.9
2017-06-03T02:41:15.334Z,11.76
2017-06-03T02:42:00.741Z,11.8
2017-06-03T02:43:00.760Z,11.78
2017-06-03T02:44:00.784Z,11.94
2017-06-03T02:45:00.812Z,11.85
2017-06-03T02:46:15.445Z,11.79
2017-06-03T02:47:00.855Z,11.76
2017-06-03T02:48:00.875Z,11.86
2017-06-03T02:49:00.951Z,11.94
2017-06-03T02:50:00.920Z,11.96
2017-06-03T02:51:00.945Z,11.98
2017-06-03T02:53:00.991Z,12.01
2017-06-03T02:54:01.013Z,11.96
2017-06-03T02:55:01.041Z,11.96
2017-06-03T02:57:01.083Z,12.01
2017-06-03T02:58:15.723Z,12.04
2017-06-03T02:59:15.746Z,12.05
2017-06-03T03:00:15.768Z,12.05
2017-06-03T03:01:01.173Z,12.1
2017-06-03T03:02:15.814Z,12.01
2017-06-03T03:03:01.220Z,11.98
2017-06-03T03:04:01.246Z,11.99
2017-06-03T03:05:01.266Z,12.1
2017-06-03T03:06:01.288Z,12.19
2017-06-03T03:07:01.312Z,12.1
2017-06-03T03:09:01.357Z,12.14
2017-06-03T03:10:01.382Z,12.07
2017-06-03T03:12:01.426Z,12.24
2017-06-03T03:13:16.069Z,12.32
2017-06-03T03:14:01.473Z,12.38
2017-06-03T03:15:16.114Z,12.32
2017-06-03T03:16:01.523Z,12.38
2017-06-03T03:17:16.161Z,12.34
2017-06-03T03:18:01.263Z,12.41
2017-06-03T03:19:01.890Z,12.41
2017-06-03T03:20:01.308Z,12.34
2017-06-03T03:21:01.635Z,12.37
2017-06-03T03:22:01.662Z,12.37
2017-06-03T03:23:01.683Z,12.39
2017-06-03T03:24:01.704Z,12.35
2017-06-03T03:25:01.728Z,12.41
2017-06-03T03:27:01.774Z,12.41
2017-06-03T03:28:01.800Z,12.39
2017-06-03T03:29:01.819Z,12.42
2017-06-03T03:30:01.842Z,12.45
2017-06-03T03:31:01.872Z,12.45
2017-06-03T03:32:01.889Z,12.47
2017-06-03T03:33:01.913Z,12.52
2017-06-03T03:34:01.933Z,12.46
2017-06-03T03:35:01.959Z,12.59
2017-06-03T03:36:01.686Z,12.68
2017-06-03T03:37:02.006Z,12.71
2017-06-03T03:38:02.027Z,12.83
2017-06-03T03:39:02.051Z,12.86
2017-06-03T03:40:02.073Z,12.87
2017-06-03T03:41:02.097Z,13.11
2017-06-03T03:42:02.120Z,13.17
2017-06-03T03:44:01.864Z,13.38
2017-06-03T03:45:01.885Z,13.49
2017-06-03T03:46:02.213Z,13.46
2017-06-03T03:47:01.932Z,13.51
2017-06-03T03:48:02.257Z,13.46
2017-06-03T03:49:16.898Z,13.46
2017-06-03T03:50:02.309Z,13.41
2017-06-03T03:51:02.330Z,13.49
2017-06-03T03:52:02.352Z,13.49
2017-06-03T03:53:02.378Z,13.49
2017-06-03T03:54:02.398Z,13.57
2017-06-03T03:55:02.423Z,13.48
2017-06-03T03:56:02.447Z,13.57
2017-06-03T03:57:02.472Z,13.57
2017-06-03T03:58:17.112Z,13.62
2017-06-03T03:59:02.214Z,13.54
2017-06-03T04:00:02.543Z,13.63
2017-06-03T04:01:02.564Z,13.52
2017-06-03T04:02:17.203Z,13.55
2017-06-03T04:03:02.610Z,13.51
2017-06-03T04:04:02.638Z,13.62
2017-06-03T04:05:17.277Z,13.57
2017-06-03T04:06:02.683Z,13.66
2017-06-03T04:07:02.702Z,13.62
2017-06-03T04:08:02.727Z,13.59
2017-06-03T04:09:02.751Z,13.63
2017-06-03T04:10:02.772Z,14.07
2017-06-03T04:11:02.796Z,14.73
2017-06-03T04:12:02.820Z,15.54
2017-06-03T04:13:02.844Z,16.39
2017-06-03T04:14:02.871Z,16.96
2017-06-03T04:15:17.514Z,17.48
2017-06-03T04:16:02.972Z,17.72
2017-06-03T04:17:02.942Z,17.64
2017-06-03T04:18:17.585Z,17.4
2017-06-03T04:19:02.993Z,17.41
2017-06-03T04:20:03.019Z,17.33
2017-06-03T04:21:17.660Z,17.7
2017-06-03T04:22:03.068Z,17.82
2017-06-03T04:23:03.094Z,17.93
2017-06-03T04:24:03.125Z,18.25
2017-06-03T04:25:03.145Z,18.69
2017-06-03T04:26:02.868Z,19.02
2017-06-03T04:27:03.199Z,19.21
2017-06-03T04:28:02.930Z,19.46
2017-06-03T04:29:03.251Z,19.74
2017-06-03T04:30:03.277Z,20.17
2017-06-03T04:31:03.304Z,20.28
2017-06-03T04:32:03.335Z,20.57
2017-06-03T04:33:03.055Z,21.1
2017-06-03T04:34:03.387Z,21.43
2017-06-03T04:35:03.451Z,21.43
2017-06-03T04:36:03.443Z,21.65
2017-06-03T04:37:18.089Z,21.14
2017-06-03T04:38:03.500Z,21.31
2017-06-03T04:39:03.529Z,21.24
2017-06-03T04:40:03.556Z,21.71
2017-06-03T04:41:03.584Z,22.03
2017-06-03T04:42:03.615Z,22.35
2017-06-03T04:43:03.644Z,22.85
2017-06-03T04:44:03.674Z,23.2
2017-06-03T04:45:03.701Z,23.39
2017-06-03T04:46:03.735Z,23.42
2017-06-03T04:47:03.763Z,23.17
2017-06-03T04:48:03.793Z,23.58
2017-06-03T04:49:18.441Z,23.61
2017-06-03T04:50:18.470Z,23.75
2017-06-03T04:51:03.884Z,23.7
2017-06-03T04:52:18.229Z,24.21
2017-06-03T04:53:03.642Z,24.21
2017-06-03T04:54:03.976Z,23.84
2017-06-03T04:55:04.008Z,24.28
2017-06-03T04:56:04.037Z,24.4
2017-06-03T04:57:03.765Z,24.61
2017-06-03T04:58:04.100Z,24.9
2017-06-03T05:00:04.163Z,25.2
2017-06-03T05:03:04.260Z,25.33
2017-06-03T05:04:18.911Z,25.6
2017-06-03T05:05:04.325Z,26.28
2017-06-03T05:06:04.356Z,26.2
2017-06-03T05:07:04.389Z,26.32
2017-06-03T05:08:04.422Z,26.69
2017-06-03T05:09:04.454Z,26.6
2017-06-03T05:10:04.487Z,26.66
2017-06-03T05:11:04.523Z,26.92
2017-06-03T05:12:04.553Z,26.67
2017-06-03T05:13:04.587Z,26.82
2017-06-03T05:14:04.621Z,26.54
2017-06-03T05:15:04.655Z,26.35
2017-06-03T05:16:04.687Z,26.44
2017-06-03T05:17:04.719Z,26.48
2017-06-03T05:18:04.755Z,26.6
2017-06-03T05:19:04.795Z,26.67
2017-06-03T05:20:04.821Z,26.72
2017-06-03T05:21:19.473Z,26.88
2017-06-03T05:22:04.890Z,26.51
2017-06-03T05:23:04.921Z,26.65
2017-06-03T05:24:19.273Z,27.19
2017-06-03T05:25:04.688Z,27.17
2017-06-03T05:26:05.026Z,27.27
2017-06-03T05:27:05.058Z,27.63
2017-06-03T05:28:05.096Z,27.62
2017-06-03T05:29:05.131Z,27.51
2017-06-03T05:30:05.161Z,27.12
2017-06-03T05:31:05.199Z,27.43
2017-06-03T05:33:05.265Z,27.84
2017-06-03T05:34:05.298Z,28
2017-06-03T05:35:19.956Z,28.4
2017-06-03T05:36:19.991Z,28.34
2017-06-03T05:37:05.411Z,27.92
2017-06-03T05:38:20.070Z,27.94
2017-06-03T05:39:05.473Z,28.02
2017-06-03T05:40:20.171Z,28.59
2017-06-03T05:41:05.546Z,28.39
2017-06-03T05:42:05.272Z,28.31
2017-06-03T05:43:05.663Z,28.68
2017-06-03T05:44:05.650Z,28.83
2017-06-03T05:45:05.685Z,29.57
2017-06-03T05:46:05.717Z,29.85
2017-06-03T05:47:05.754Z,29.65
2017-06-03T05:48:05.788Z,29.68
2017-06-03T05:49:05.823Z,29.98
2017-06-03T05:52:20.249Z,30.11
2017-06-03T05:53:20.585Z,30.24
2017-06-03T05:54:06.052Z,30.13
2017-06-03T05:55:05.737Z,30.62
2017-06-03T05:56:20.718Z,31.14
2017-06-03T05:57:06.116Z,30.99
2017-06-03T05:58:06.146Z,30.72
2017-06-03T06:00:06.217Z,30.07
2017-06-03T06:01:06.253Z,30.29
2017-06-03T06:02:06.291Z,30.61
2017-06-03T06:03:06.329Z,30.15
2017-06-03T06:05:06.398Z,30.01
2017-06-03T06:07:06.471Z,30.16
2017-06-03T06:08:20.822Z,30.65
2017-06-03T06:09:06.543Z,30.39
2017-06-03T06:10:06.581Z,30.55
2017-06-03T06:11:06.312Z,30.43
2017-06-03T06:12:21.272Z,30.37
2017-06-03T06:13:06.690Z,30.29
2017-06-03T06:14:06.724Z,30.37
2017-06-03T06:15:06.761Z,30.1
2017-06-03T06:16:06.794Z,30.61
2017-06-03T06:18:06.871Z,31.02
2017-06-03T06:19:06.913Z,30.91
2017-06-03T06:20:06.948Z,30.42
2017-06-03T06:21:21.603Z,30.2
2017-06-03T06:22:07.016Z,30.04
2017-06-03T06:23:07.051Z,30.11
2017-06-03T06:24:06.785Z,29.95
2017-06-03T06:25:07.128Z,29.65
2017-06-03T06:26:06.860Z,29.95
2017-06-03T06:27:21.820Z,30.27
2017-06-03T06:28:06.939Z,30.64
2017-06-03T06:29:07.306Z,30.62
2017-06-03T06:30:07.313Z,31.17
2017-06-03T06:31:07.348Z,31.76
2017-06-03T06:32:07.079Z,31.95
2017-06-03T06:33:07.458Z,32.35
2017-06-03T06:36:07.533Z,31.34
2017-06-03T06:37:07.565Z,31.44
2017-06-03T06:38:07.603Z,31.17
2017-06-03T06:39:07.641Z,31.04
2017-06-03T06:40:07.373Z,31.32
2017-06-03T06:41:07.712Z,30.94
2017-06-03T06:42:07.751Z,30.76
2017-06-03T06:43:07.483Z,31.09
2017-06-03T06:44:07.824Z,30.92
2017-06-03T06:45:07.860Z,31.06
2017-06-03T06:46:07.594Z,31.38
2017-06-03T06:47:07.958Z,31.47
2017-06-03T06:48:07.972Z,31.35
2017-06-03T06:49:08.009Z,31.56
2017-06-03T06:50:08.046Z,31.56
2017-06-03T06:51:08.082Z,31.95
2017-06-03T06:52:07.820Z,32.22
2017-06-03T06:53:08.157Z,32.33
2017-06-03T06:54:07.889Z,31.96
2017-06-03T06:55:22.851Z,32.13
2017-06-03T06:56:08.268Z,32.38
2017-06-03T06:57:08.303Z,32.88
2017-06-03T06:58:08.345Z,32.97
2017-06-03T06:59:22.997Z,32.29
2017-06-03T07:00:08.413Z,32.29
2017-06-03T07:01:08.453Z,32.13
2017-06-03T07:02:08.489Z,32.14
2017-06-03T07:03:08.579Z,32.13
2017-06-03T07:04:08.565Z,31.78
2017-06-03T07:05:08.601Z,31.46
2017-06-03T07:06:08.639Z,31.5
2017-06-03T07:07:08.674Z,31.21
2017-06-03T07:08:08.712Z,30.45
2017-06-03T07:09:23.372Z,30.31
2017-06-03T07:10:08.482Z,30.37
2017-06-03T07:11:08.822Z,30.05
2017-06-03T07:12:08.861Z,30.1
2017-06-03T07:13:08.897Z,30.24
2017-06-03T07:14:08.935Z,30.46
2017-06-03T07:15:23.589Z,30.46
2017-06-03T07:16:09.009Z,30.77
2017-06-03T07:17:09.043Z,30.69
2017-06-03T07:18:09.077Z,30.57
2017-06-03T07:19:09.114Z,30.79
2017-06-03T07:20:08.849Z,31.35
2017-06-03T07:21:08.886Z,31.8
2017-06-03T07:22:08.925Z,31.13
2017-06-03T07:25:09.337Z,31.17
2017-06-03T07:26:09.074Z,31.2
2017-06-03T07:27:09.407Z,31.28
2017-06-03T07:28:23.759Z,31.21
2017-06-03T07:29:09.483Z,30.82
2017-06-03T07:30:09.262Z,30.42
2017-06-03T07:31:24.171Z,30.17
2017-06-03T07:32:09.285Z,30.47
2017-06-03T07:33:09.630Z,30.77
2017-06-03T07:34:09.660Z,30.79
2017-06-03T07:35:09.696Z,30.97
2017-06-03T07:36:09.733Z,31.23
2017-06-03T07:37:09.770Z,30.91
2017-06-03T07:38:09.827Z,30.29
2017-06-03T07:39:09.841Z,30.34
2017-06-03T07:40:09.876Z,29.64
2017-06-03T07:41:09.921Z,29.23
2017-06-03T07:42:10.000Z,28.96
2017-06-03T07:43:24.605Z,28.39
2017-06-03T07:44:10.072Z,28.15
2017-06-03T07:45:10.056Z,28.3
2017-06-03T07:46:09.787Z,28.24
2017-06-03T07:47:24.747Z,28.31
2017-06-03T07:48:09.865Z,28.43
2017-06-03T07:49:10.196Z,28.44
2017-06-03T07:50:09.926Z,28.46
2017-06-03T07:51:10.267Z,28.27
2017-06-03T07:52:10.303Z,28.54
2017-06-03T07:53:10.334Z,28.61
2017-06-03T07:54:10.372Z,28.98
2017-06-03T07:55:10.406Z,29.51
2017-06-03T07:57:10.471Z,29.57
2017-06-03T07:59:10.546Z,29.02
2017-06-03T08:00:10.628Z,29.23
2017-06-03T08:01:10.611Z,28.86
2017-06-03T08:02:25.265Z,29.04
2017-06-03T08:03:10.680Z,29.31
2017-06-03T08:04:10.712Z,29.61
2017-06-03T08:05:10.752Z,29.52
2017-06-03T08:06:10.785Z,29.7
2017-06-03T08:07:10.819Z,29.65
2017-06-03T08:08:10.873Z,29.64
2017-06-03T08:09:10.885Z,29.15
2017-06-03T08:10:10.920Z,28.85
2017-06-03T08:11:10.958Z,28.73
2017-06-03T08:12:10.992Z,29
2017-06-03T08:13:11.023Z,29.55
2017-06-03T08:14:11.112Z,29.97
2017-06-03T08:15:25.712Z,29.82
2017-06-03T08:16:11.128Z,29.83
2017-06-03T08:17:11.166Z,30
2017-06-03T08:18:11.196Z,30.31
2017-06-03T08:19:11.229Z,30.45
2017-06-03T08:20:10.961Z,30.57
2017-06-03T08:21:11.297Z,31.31
2017-06-03T08:22:11.332Z,31.75
2017-06-03T08:23:11.366Z,32.33
2017-06-03T08:24:11.399Z,32.84
2017-06-03T08:25:11.436Z,32.4
2017-06-03T08:26:10.861Z,32.66
2017-06-03T08:27:11.503Z,32.78
2017-06-03T08:28:11.540Z,32.6
2017-06-03T08:31:11.645Z,32.28
2017-06-03T08:32:11.679Z,32.37
2017-06-03T08:33:11.713Z,32.77
2017-06-03T08:34:26.386Z,32.88
2017-06-03T08:35:11.479Z,32.84
2017-06-03T08:36:11.820Z,32.35
2017-06-03T08:37:11.551Z,31.84
2017-06-03T08:38:11.890Z,31.72
2017-06-03T08:39:11.924Z,31.66
2017-06-03T08:40:11.655Z,31.95
2017-06-03T08:41:11.695Z,31.78
2017-06-03T08:42:11.725Z,32.11
2017-06-03T08:43:11.759Z,32.35
2017-06-03T08:44:12.097Z,32.59
2017-06-03T08:45:12.135Z,32
2017-06-03T08:46:12.176Z,31.8
2017-06-03T08:47:11.902Z,32.38
2017-06-03T08:48:11.941Z,32.75
2017-06-03T08:49:12.274Z,33.11
2017-06-03T08:50:26.929Z,33.57
2017-06-03T08:51:12.347Z,33.32
2017-06-03T08:52:12.381Z,33.44
2017-06-03T08:53:12.412Z,33.49
2017-06-03T08:54:12.450Z,33.66
2017-06-03T08:55:12.484Z,33.31
2017-06-03T08:56:12.527Z,32.99
2017-06-03T08:57:12.554Z,32.81
2017-06-03T08:58:12.590Z,32.96
2017-06-03T08:59:12.623Z,32.59
2017-06-03T09:01:12.699Z,32.01
2017-06-03T09:02:12.733Z,32.18
2017-06-03T09:03:27.384Z,32.06
2017-06-03T09:04:27.419Z,31.89
2017-06-03T09:05:12.834Z,31.92
2017-06-03T09:06:27.490Z,32.1
2017-06-03T09:07:12.914Z,32.3
2017-06-03T09:08:12.940Z,32.07
2017-06-03T09:09:12.974Z,31.66
2017-06-03T09:10:13.008Z,31.43
2017-06-03T09:11:13.046Z,31.48
2017-06-03T09:12:12.784Z,31.62
2017-06-03T09:13:13.114Z,31.7
2017-06-03T09:14:13.146Z,31.48
2017-06-03T09:15:13.182Z,31.72
2017-06-03T09:16:13.221Z,31.8
2017-06-03T09:17:13.253Z,31.66
2017-06-03T09:18:13.288Z,30.92
2017-06-03T09:19:27.941Z,30.54
2017-06-03T09:20:13.358Z,30.32
2017-06-03T09:21:13.393Z,30.13
2017-06-03T09:22:28.044Z,30.15
2017-06-03T09:23:13.460Z,30.05
2017-06-03T09:24:13.494Z,30.29
2017-06-03T09:25:13.526Z,30.84
2017-06-03T09:26:13.561Z,31.62
2017-06-03T09:27:13.596Z,31.48
2017-06-03T09:28:13.676Z,31.29
2017-06-03T09:29:13.664Z,30.95
2017-06-03T09:31:13.737Z,30.23
2017-06-03T09:33:13.799Z,29.76
2017-06-03T09:34:13.530Z,29.97
2017-06-03T09:35:13.868Z,29.82
2017-06-03T09:36:13.597Z,29.53
2017-06-03T09:37:28.554Z,29.24
2017-06-03T09:38:13.969Z,29.24
2017-06-03T09:39:13.999Z,29.24
2017-06-03T09:40:14.083Z,29.23
2017-06-03T09:41:13.765Z,29.08
2017-06-03T09:42:14.101Z,28.98
2017-06-03T09:43:14.133Z,28.96
2017-06-03T09:44:28.487Z,28.67
2017-06-03T09:45:14.204Z,28.59
2017-06-03T09:46:13.933Z,28.64
2017-06-03T09:47:13.963Z,28.66
2017-06-03T09:48:13.992Z,28.44
2017-06-03T09:49:28.949Z,28.15
2017-06-03T09:50:14.060Z,28.19
2017-06-03T09:51:14.399Z,27.96
2017-06-03T09:52:14.427Z,27.85
2017-06-03T09:53:14.154Z,27.79
2017-06-03T09:54:14.495Z,27.67
2017-06-03T09:55:14.217Z,27.25
2017-06-03T09:56:14.558Z,27.07
2017-06-03T09:57:14.587Z,26.97
2017-06-03T09:58:14.665Z,26.77
2017-06-03T09:59:14.676Z,26.81
2017-06-03T10:01:14.709Z,26.63
2017-06-03T10:03:14.468Z,26.67
2017-06-03T10:04:14.503Z,26.47
2017-06-03T10:05:14.838Z,26.32
2017-06-03T10:06:14.564Z,26.32
2017-06-03T10:07:14.900Z,26.29
2017-06-03T10:08:14.626Z,26.39
2017-06-03T10:09:29.577Z,26.58
2017-06-03T10:10:14.992Z,26.5
2017-06-03T10:11:15.022Z,26.57
2017-06-03T10:12:15.053Z,26.55
2017-06-03T10:13:14.779Z,26.48
2017-06-03T10:14:15.142Z,26.5
2017-06-03T10:15:29.771Z,26.44
2017-06-03T10:16:15.176Z,26.45
2017-06-03T10:20:15.348Z,26.58
2017-06-03T10:21:29.946Z,26.63
2017-06-03T10:23:15.439Z,26.76
2017-06-03T10:24:15.419Z,26.82
2017-06-03T10:25:30.067Z,27.02
2017-06-03T10:26:15.478Z,27.03
2017-06-03T10:27:15.510Z,27
2017-06-03T10:29:15.570Z,27.37
2017-06-03T10:31:15.354Z,27.62
2017-06-03T10:32:15.361Z,27.65
2017-06-03T10:33:15.387Z,27.5
2017-06-03T10:34:15.443Z,27.57
2017-06-03T10:35:30.374Z,27.69
2017-06-03T10:36:15.480Z,27.69
2017-06-03T10:37:15.816Z,27.75
2017-06-03T10:38:30.462Z,27.7
2017-06-03T10:39:15.570Z,27.79
2017-06-03T10:40:15.600Z,27.7
2017-06-03T10:41:30.554Z,27.67
2017-06-03T10:42:15.664Z,27.77
2017-06-03T10:43:15.998Z,27.74
2017-06-03T10:44:15.723Z,27.77
2017-06-03T10:45:16.076Z,27.92
2017-06-03T10:47:16.124Z,27.75
2017-06-03T10:48:16.148Z,27.62
2017-06-03T10:49:16.179Z,27.51
2017-06-03T10:51:16.243Z,27.31
2017-06-03T10:52:16.270Z,27.41
2017-06-03T10:53:15.996Z,27.34
2017-06-03T10:54:16.329Z,27.36
2017-06-03T10:55:16.362Z,27.07
2017-06-03T10:56:16.391Z,27
2017-06-03T10:57:31.044Z,27.02
2017-06-03T10:58:16.452Z,26.94
2017-06-03T10:59:16.482Z,26.81
2017-06-03T11:00:16.535Z,26.67
2017-06-03T11:01:16.543Z,26.26
2017-06-03T11:02:16.573Z,25.94
2017-06-03T11:03:16.602Z,25.72
2017-06-03T11:04:16.633Z,25.6
2017-06-03T11:05:16.717Z,25.32
2017-06-03T11:06:16.697Z,25.3
2017-06-03T11:07:16.725Z,25.21
2017-06-03T11:08:31.374Z,24.93
2017-06-03T11:09:16.790Z,24.99
2017-06-03T11:10:16.865Z,24.62
2017-06-03T11:11:16.539Z,24.61
2017-06-03T11:12:31.498Z,24.49
2017-06-03T11:13:16.599Z,24.47
2017-06-03T11:14:16.631Z,24.15
2017-06-03T11:15:16.963Z,24.16
2017-06-03T11:16:16.993Z,23.93
2017-06-03T11:17:17.023Z,23.72
2017-06-03T11:18:17.054Z,23.79
2017-06-03T11:19:17.083Z,23.65
2017-06-03T11:20:17.114Z,23.68
2017-06-03T11:21:17.141Z,23.66
2017-06-03T11:22:17.200Z,23.66
2017-06-03T11:23:17.199Z,23.51
2017-06-03T11:24:31.849Z,23.36
2017-06-03T11:25:17.256Z,23.35
2017-06-03T11:26:17.285Z,23.33
2017-06-03T11:27:17.318Z,23.27
2017-06-03T11:28:17.344Z,23.25
2017-06-03T11:29:17.373Z,23.15
2017-06-03T11:30:17.405Z,23.23
2017-06-03T11:31:17.435Z,23.13
2017-06-03T11:32:17.464Z,23.13
2017-06-03T11:33:17.797Z,22.95
2017-06-03T11:34:17.520Z,22.92
2017-06-03T11:35:17.553Z,23
2017-06-03T11:36:17.275Z,22.95
2017-06-03T11:37:17.611Z,22.82
2017-06-03T11:39:17.664Z,22.54
2017-06-03T11:40:17.697Z,22.27
2017-06-03T11:41:17.723Z,22.24
2017-06-03T11:42:17.755Z,22.07
2017-06-03T11:43:17.778Z,21.74
2017-06-03T11:44:32.426Z,21.56
2017-06-03T11:45:17.839Z,21.56
2017-06-03T11:46:17.867Z,21.46
2017-06-03T11:47:17.895Z,21.58
2017-06-03T11:48:17.925Z,21.62
2017-06-03T11:49:17.952Z,21.65
2017-06-03T11:50:17.980Z,21.5
2017-06-03T11:51:18.012Z,21.56
2017-06-03T11:52:17.733Z,21.58
2017-06-03T11:54:18.098Z,21.69
2017-06-03T11:56:17.845Z,21.61
2017-06-03T11:57:32.796Z,21.61
2017-06-03T11:58:32.824Z,21.44
2017-06-03T11:59:17.627Z,21.54
2017-06-03T12:00:32.627Z,21.64
2017-06-03T12:01:18.042Z,21.59
2017-06-03T12:02:17.711Z,21.5
2017-06-03T12:03:18.045Z,21.46
2017-06-03T12:04:18.073Z,21.52
2017-06-03T12:05:18.404Z,21.22
2017-06-03T12:06:18.129Z,21.17
2017-06-03T12:08:18.488Z,21.22
2017-06-03T12:11:18.571Z,21.43
2017-06-03T12:12:18.600Z,21.42
2017-06-03T12:13:18.627Z,21.25
2017-06-03T12:14:18.664Z,21.21
2017-06-03T12:15:18.747Z,21.24
2017-06-03T12:16:33.329Z,21.16
2017-06-03T12:17:18.740Z,21.09
2017-06-03T12:18:18.769Z,21.12
2017-06-03T12:19:18.796Z,20.97
2017-06-03T12:20:18.874Z,20.98
2017-06-03T12:21:18.548Z,20.84
2017-06-03T12:22:18.882Z,20.66
2017-06-03T12:23:18.908Z,20.66
2017-06-03T12:24:18.936Z,20.69
2017-06-03T12:25:18.961Z,20.73
2017-06-03T12:26:18.991Z,20.8
2017-06-03T12:27:33.687Z,20.79
2017-06-03T12:28:19.048Z,20.82
2017-06-03T12:29:33.692Z,20.7
2017-06-03T12:30:19.156Z,20.72
2017-06-03T12:31:19.134Z,20.64
2017-06-03T12:32:33.779Z,20.74
2017-06-03T12:33:19.186Z,20.73
2017-06-03T12:34:19.215Z,20.82
2017-06-03T12:35:19.241Z,20.97
2017-06-03T12:36:19.269Z,21.13
2017-06-03T12:37:19.300Z,21.21
2017-06-03T12:38:19.327Z,21.17
2017-06-03T12:39:19.354Z,21.14
2017-06-03T12:40:19.383Z,21.13
2017-06-03T12:41:19.411Z,20.94
2017-06-03T12:43:19.465Z,20.87
2017-06-03T12:44:19.491Z,20.91
2017-06-03T12:45:19.573Z,20.88
2017-06-03T12:46:19.549Z,20.84
2017-06-03T12:47:34.193Z,20.82
2017-06-03T12:48:19.603Z,20.94
2017-06-03T12:49:19.629Z,20.92
2017-06-03T12:50:19.666Z,20.95
2017-06-03T12:51:19.687Z,20.95
2017-06-03T12:52:19.715Z,20.85
2017-06-03T12:53:19.791Z,20.66
2017-06-03T12:54:19.769Z,20.72
2017-06-03T12:55:20.096Z,20.82
2017-06-03T12:56:19.822Z,20.85
2017-06-03T12:58:19.879Z,20.88
2017-06-03T12:59:34.525Z,20.82
2017-06-03T13:00:19.933Z,20.82
2017-06-03T13:01:19.963Z,20.72
2017-06-03T13:02:19.989Z,20.74
2017-06-03T13:03:19.766Z,20.64
2017-06-03T13:04:20.057Z,20.69
2017-06-03T13:05:20.084Z,20.57
2017-06-03T13:06:20.114Z,20.61
2017-06-03T13:07:19.836Z,20.61
2017-06-03T13:08:19.850Z,20.66
2017-06-03T13:09:20.182Z,20.58
2017-06-03T13:10:20.209Z,20.69
2017-06-03T13:11:20.291Z,20.73
2017-06-03T13:14:20.346Z,21.03
2017-06-03T13:15:20.545Z,20.97
2017-06-03T13:16:34.991Z,20.98
2017-06-03T13:17:20.400Z,20.94
2017-06-03T13:18:20.426Z,20.8
2017-06-03T13:19:35.073Z,20.87
2017-06-03T13:20:20.180Z,20.88
2017-06-03T13:21:20.509Z,20.76
2017-06-03T13:22:20.538Z,20.66
2017-06-03T13:23:20.566Z,20.58
2017-06-03T13:24:20.625Z,20.58
2017-06-03T13:25:20.621Z,20.62
2017-06-03T13:26:20.646Z,20.52
2017-06-03T13:27:20.674Z,20.61
2017-06-03T13:28:20.703Z,20.55
2017-06-03T13:29:20.730Z,20.5
2017-06-03T13:30:20.757Z,20.52
2017-06-03T13:31:20.782Z,20.57
2017-06-03T13:32:20.816Z,20.5
2017-06-03T13:33:35.456Z,20.42
2017-06-03T13:34:20.865Z,20.43
2017-06-03T13:35:35.513Z,20.33
2017-06-03T13:36:20.923Z,20.26
2017-06-03T13:37:20.945Z,20.29
2017-06-03T13:38:20.670Z,20.26
2017-06-03T13:39:21.002Z,20.2
2017-06-03T13:40:21.031Z,20.28
2017-06-03T13:41:21.057Z,20.28
2017-06-03T13:42:21.085Z,20.21
2017-06-03T13:43:21.110Z,20.18
2017-06-03T13:45:21.164Z,20.1
2017-06-03T13:46:21.191Z,20.03
2017-06-03T13:47:21.220Z,19.86
2017-06-03T13:48:21.248Z,19.73
2017-06-03T13:49:21.274Z,19.77
2017-06-03T13:50:21.301Z,19.76
2017-06-03T13:51:35.945Z,19.83
2017-06-03T13:52:21.353Z,19.84
2017-06-03T13:53:21.079Z,19.99
2017-06-03T13:54:21.408Z,19.94
2017-06-03T13:55:21.438Z,19.86
2017-06-03T13:56:21.464Z,19.87
2017-06-03T13:58:21.568Z,19.98
2017-06-03T13:59:21.546Z,19.94